Time;durP1;ratioP1;P1;durP2;ratioP2;P2;SDS_P1;SDS_P2;PMS_P1;PMS_P2;Temp;Humidity;BMP_temperature;BMP_pressure;BME280_temperature;BME280_humidity;BME280_pressure;Samples;Min_cycle;Max_cycle;Signal;HPM_P1;HPM_P2
2022/02/06 00:00:27;;;;;;;;;;;;;;;3.04;49.74;100626.87;4386895;32;34400;-82
2022/02/06 00:03:19;;;;;;;;;;;;;;;;;;;;;
2022/02/06 00:09:23;;;;;;;;;;;;;;;;;;;;;
2022/02/06 00:13:02;;;;;;;;;;;;;;;2.91;50.11;100611.78;4334973;33;35011;-82
2022/02/06 00:15:29;;;;;;;;;;;;;;;2.94;49.80;100611.66;4339162;32;34265;-82
2022/02/06 00:18:16;;;;;;;;;;;;;;;2.91;49.68;100611.78;4348156;32;34896;-82
2022/02/06 00:31:35;;;;;;;;;;;;;;;2.47;52.01;100599.16;4364370;32;34028;-81
2022/02/06 00:40:13;;;;;;;;;;;;;;;2.30;51.78;100594.72;4383452;32;35762;-82
2022/02/06 00:44:04;;;;;;;;;;;;;;;;;;;;;
2022/02/06 00:47:42;;;;;;;;;;;;;;;0.93;56.61;100635.97;4374529;32;33397;-83
2022/02/06 00:56:23;;;;;;;;;;;;;;;;;;;;;
2022/02/06 01:28:13;;;;;;;;;;;;;;;1.50;54.59;100578.44;4381633;32;32632;-79
2022/02/06 01:43:40;;;;;;;;;;;;;;;1.27;55.21;100568.13;4360095;32;33219;-81
2022/02/06 03:08:02;;;;;;;;;;;;;;;;;;;;;
2022/02/06 03:27:37;;;;;;;;;;;;;;;0.75;55.77;100488.34;4376548;32;34573;-80
2022/02/06 03:36:10;;;;;;;;;;;;;;;0.54;56.72;100484.03;4365054;32;35616;-80
2022/02/06 03:39:32;;;;;;;;;;;;;;;0.55;56.41;100472.66;4361552;32;35963;-80
2022/02/06 03:49:25;;;;;;;;;;;;;;;;;;;;;
2022/02/06 03:53:00;;;;;;;;;;;;;;;0.80;56.04;100456.72;4335713;33;35183;-80
2022/02/06 03:58:47;;;;;;;;;;;;;;;;;;;;;
2022/02/06 04:08:08;;;;;;;;;;;;;;;1.10;54.91;100444.84;4443662;26;31888;-78
2022/02/06 04:10:43;;;;;;;;;;;;;;;1.04;55.04;100448.59;4415117;32;33798;-78
2022/02/06 04:13:16;;;;;;;;;;;;;;;1.31;53.92;100444.72;4403726;32;34587;-78
2022/02/06 04:15:46;;;;;;;;;;;;;;;1.17;54.37;100441.91;4429469;32;34439;-79
2022/02/06 04:18:18;;;;;;;;;;;;;;;1.23;54.22;100432.91;4427417;32;32438;-79
2022/02/06 04:20:46;;;;;;;;;;;;;;;1.17;54.34;100430.56;4420961;32;34519;-79
2022/02/06 04:23:14;;;;;;;;;;;;;;;1.19;54.16;100423.47;4419144;32;36052;-79
2022/02/06 04:25:42;;;;;;;;;;;;;;;1.22;54.09;100415.50;4405499;32;34884;-79
2022/02/06 04:28:30;;;;;;;;;;;;;;;1.27;53.87;100414.34;4410165;32;33167;-78
2022/02/06 04:31:00;;;;;;;;;;;;;;;0.97;55.06;100404.44;4426364;32;34148;-79
2022/02/06 04:33:27;;;;;;;;;;;;;;;1.16;54.27;100405.28;4415452;32;35962;-80
2022/02/06 04:35:59;;;;;;;;;;;;;;;0.84;54.94;100406.75;4421289;32;34739;-78
2022/02/06 04:38:37;;;;;;;;;;;;;;;1.03;54.60;100399.75;4413551;32;33685;-79
2022/02/06 04:41:17;;;;;;;;;;;;;;;0.84;54.94;100404.13;4403163;32;33504;-79
2022/02/06 05:31:43;;;;;;;;;;;;;;;0.50;55.75;100401.31;4411493;32;34111;-78
2022/02/06 05:33:29;;;;;;;;;;;;;;;0.62;55.73;100390.31;4394511;32;33241;-79
2022/02/06 05:35:57;;;;;;;;;;;;;;;0.72;55.19;100388.97;4391151;32;34906;-79
2022/02/06 05:38:27;;;;;;;;;;;;;;;0.69;55.12;100391.72;4402467;32;36165;-78
2022/02/06 05:40:55;;;;;;;;;;;;;;;0.50;56.06;100382.16;4407319;32;35631;-79
2022/02/06 05:43:23;;;;;;;;;;;;;;;0.62;55.71;100386.84;4411343;32;33057;-79
2022/02/06 05:45:51;;;;;;;;;;;;;;;0.32;56.80;100381.16;4412273;32;33622;-79
2022/02/06 05:48:20;;;;;;;;;;;;;;;0.73;55.62;100381.97;4415506;32;34854;-79
2022/02/06 05:50:48;;;;;;;;;;;;;;;0.45;56.45;100381.50;4420726;32;35366;-79
2022/02/06 05:53:17;;;;;;;;;;;;;;;0.80;55.68;100384.25;4401306;32;34001;-79
2022/02/06 05:55:45;;;;;;;;;;;;;;;0.61;56.39;100385.13;4410278;32;34482;-78
2022/02/06 05:58:13;;;;;;;;;;;;;;;0.69;56.37;100386.47;4411726;32;36377;-79
2022/02/06 06:00:41;;;;;;;;;;;;;;;0.86;55.74;100386.56;4398368;32;35923;-78
2022/02/06 06:03:09;;;;;;;;;;;;;;;0.94;55.43;100389.69;4411961;32;33171;-79
2022/02/06 06:05:36;;;;;;;;;;;;;;;0.72;56.07;100382.87;4409028;32;33998;-77
2022/02/06 06:08:04;;;;;;;;;;;;;;;0.76;55.90;100387.91;4411420;32;34994;-79
2022/02/06 06:10:33;;;;;;;;;;;;;;;0.83;55.95;100378.88;4429051;32;34661;-77
2022/02/06 06:13:02;;;;;;;;;;;;;;;0.73;56.31;100384.59;4427754;32;33914;-77
2022/02/06 06:15:30;;;;;;;;;;;;;;;0.95;55.90;100377.47;4439803;32;35047;-77
2022/02/06 06:18:06;;;;;;;;;;;;;;;0.73;56.31;100376.72;4407625;32;34685;-78
2022/02/06 06:20:36;;;;;;;;;;;;;;;0.77;56.64;100383.53;4428931;32;35041;-78
2022/02/06 06:23:05;;;;;;;;;;;;;;;0.92;56.45;100377.59;4431056;32;33808;-77
2022/02/06 06:25:40;;;;;;;;;;;;;;;0.97;56.42;100378.25;4427453;32;33465;-78
2022/02/06 06:28:09;;;;;;;;;;;;;;;1.10;56.17;100381.97;4429734;32;36613;-78
2022/02/06 06:30:36;;;;;;;;;;;;;;;1.01;56.22;100383.25;4408593;32;33867;-79
2022/02/06 06:33:04;;;;;;;;;;;;;;;1.22;55.65;100379.63;4413428;32;33094;-78
2022/02/06 06:35:53;;;;;;;;;;;;;;;1.34;55.07;100372.97;4440654;32;35277;-78
2022/02/06 06:38:21;;;;;;;;;;;;;;;1.24;55.58;100375.16;4428264;32;34802;-78
2022/02/06 06:40:50;;;;;;;;;;;;;;;1.06;55.99;100373.41;4440944;32;34721;-79
2022/02/06 06:43:18;;;;;;;;;;;;;;;1.25;55.84;100370.78;4409980;32;33163;-78
2022/02/06 06:45:48;;;;;;;;;;;;;;;1.44;55.26;100361.12;4428401;32;32530;-79
2022/02/06 06:48:16;;;;;;;;;;;;;;;1.31;55.64;100368.72;4440805;32;34641;-79
2022/02/06 06:50:44;;;;;;;;;;;;;;;1.49;55.53;100367.84;4417178;32;34513;-81
2022/02/06 06:53:13;;;;;;;;;;;;;;;1.49;55.58;100378.31;4424405;32;33199;-80
2022/02/06 06:55:44;;;;;;;;;;;;;;;1.53;55.46;100372.00;4419870;32;33453;-82
2022/02/06 06:58:23;;;;;;;;;;;;;;;1.72;54.92;100364.97;4428262;32;36206;-81
2022/02/06 07:03:35;;;;;;;;;;;;;;;1.86;54.27;100354.63;4414750;32;32159;-80
2022/02/06 07:06:05;;;;;;;;;;;;;;;1.68;55.14;100352.06;4426986;32;34751;-80
2022/02/06 07:08:34;;;;;;;;;;;;;;;1.98;54.25;100353.16;4440513;32;34605;-81
2022/02/06 07:11:03;;;;;;;;;;;;;;;1.66;55.37;100356.53;4426146;32;33545;-81
2022/02/06 07:13:32;;;;;;;;;;;;;;;1.78;55.62;100350.69;4439961;32;33380;-81
2022/02/06 07:16:06;;;;;;;;;;;;;;;2.09;54.92;100348.22;4431377;32;34704;-81
2022/02/06 07:18:35;;;;;;;;;;;;;;;2.07;54.79;100337.78;4414143;32;35694;-81
2022/02/06 07:21:05;;;;;;;;;;;;;;;1.90;55.60;100355.31;4419188;32;34587;-81
2022/02/06 07:23:33;;;;;;;;;;;;;;;2.11;55.20;100344.59;4431946;32;35027;-80
2022/02/06 07:26:06;;;;;;;;;;;;;;;2.11;55.11;100330.59;4418364;32;33496;-81
2022/02/06 07:28:35;;;;;;;;;;;;;;;2.27;55.22;100332.34;4430189;32;35670;-81
2022/02/06 07:31:08;;;;;;;;;;;;;;;2.27;54.72;100332.34;4427822;32;34785;-81
2022/02/06 07:33:38;;;;;;;;;;;;;;;2.54;54.03;100332.69;4430360;32;34261;-81
2022/02/06 07:36:06;;;;;;;;;;;;;;;2.45;54.25;100328.75;4439230;32;33934;-81
2022/02/06 07:38:35;;;;;;;;;;;;;;;2.70;53.69;100330.97;4420612;32;35513;-81
2022/02/06 07:41:03;;;;;;;;;;;;;;;2.53;54.33;100334.47;4428950;32;35037;-81
2022/02/06 07:43:31;;;;;;;;;;;;;;;2.82;53.61;100320.62;4440078;32;33344;-82
2022/02/06 07:46:01;;;;;;;;;;;;;;;2.99;52.79;100323.16;4429998;32;34575;-82
2022/02/06 07:48:30;;;;;;;;;;;;;;;2.59;54.41;100328.91;4434040;32;35722;-79
2022/02/06 07:50:57;;;;;;;;;;;;;;;2.97;53.44;100328.53;4429927;32;35361;-82
2022/02/06 07:53:25;;;;;;;;;;;;;;;3.17;53.08;100330.03;4412737;32;32827;-82
2022/02/06 07:55:57;;;;;;;;;;;;;;;3.25;53.35;100335.72;4427416;32;34303;-82
2022/02/06 08:01:11;;;;;;;;;;;;;;;3.49;53.57;100329.94;4441605;32;33288;-80
2022/02/06 08:03:39;;;;;;;;;;;;;;;3.60;53.31;100330.16;4396654;32;33341;-80
2022/02/06 08:06:07;;;;;;;;;;;;;;;3.64;53.41;100329.06;4415896;32;33945;-82
2022/02/06 08:08:36;;;;;;;;;;;;;;;3.88;53.31;100325.00;4431951;32;35830;-81
2022/02/06 08:11:07;;;;;;;;;;;;;;;4.07;52.74;100332.66;4419793;32;34617;-81
2022/02/06 08:13:53;;;;;;;;;;;;;;;3.86;52.71;100323.41;4443893;32;33843;-83
2022/02/06 08:16:21;;;;;;;;;;;;;;;3.97;52.50;100331.53;4418912;32;34002;-80
2022/02/06 08:18:49;;;;;;;;;;;;;;;4.26;52.10;100320.09;4443215;32;36304;-80
2022/02/06 08:21:18;;;;;;;;;;;;;;;4.60;51.32;100317.94;4444786;32;34513;-80
2022/02/06 08:23:46;;;;;;;;;;;;;;;4.51;51.80;100315.88;4444779;32;32980;-80
2022/02/06 08:26:14;;;;;;;;;;;;;;;4.85;50.33;100310.22;4407125;32;35001;-82
2022/02/06 08:28:42;;;;;;;;;;;;;;;4.88;49.75;100317.06;4431435;32;35056;-83
2022/02/06 08:31:10;;;;;;;;;;;;;;;4.71;50.12;100306.75;4417281;32;34341;-86
2022/02/06 08:33:41;;;;;;;;;;;;;;;5.28;49.82;100306.53;4445606;32;34785;-86
2022/02/06 08:36:08;;;;;;;;;;;;;;;4.94;49.67;100303.50;4416547;32;33609;-79
2022/02/06 08:38:56;;;;;;;;;;;;;;;5.39;48.69;100303.22;4418345;32;35780;-78
2022/02/06 08:41:24;;;;;;;;;;;;;;;5.29;48.11;100294.19;4445398;32;34271;-87
2022/02/06 08:43:56;;;;;;;;;;;;;;;5.64;47.68;100293.56;4445751;32;32960;-81
2022/02/06 08:46:25;;;;;;;;;;;;;;;5.43;48.19;100282.62;4445647;32;35268;-83
2022/02/06 08:48:53;;;;;;;;;;;;;;;5.08;48.66;100293.78;4414632;32;35548;-86
2022/02/06 08:51:22;;;;;;;;;;;;;;;5.51;47.71;100287.44;4431712;32;34687;-82
2022/02/06 08:53:51;;;;;;;;;;;;;;;5.97;46.94;100284.28;4415661;32;33191;-85
2022/02/06 08:56:19;;;;;;;;;;;;;;;6.34;46.77;100278.16;4434033;32;34679;-84
2022/02/06 08:58:47;;;;;;;;;;;;;;;6.26;46.77;100288.41;4444716;32;35707;-80
2022/02/06 09:01:15;;;;;;;;;;;;;;;6.65;45.87;100290.09;4420500;32;36775;-86
2022/02/06 09:03:43;;;;;;;;;;;;;;;6.32;45.82;100292.44;4430868;32;33264;-83
2022/02/06 09:06:12;;;;;;;;;;;;;;;6.40;45.11;100292.75;4410305;32;33227;-82
2022/02/06 09:08:40;;;;;;;;;;;;;;;6.69;45.18;100280.97;4418093;32;35215;-84
2022/02/06 09:11:08;;;;;;;;;;;;;;;7.03;44.58;100275.00;4418471;32;34117;-83
2022/02/06 09:13:36;;;;;;;;;;;;;;;7.23;44.27;100275.25;4444322;32;33221;-90
2022/02/06 09:16:03;;;;;;;;;;;;;;;6.86;44.35;100260.34;4418384;32;35106;-88
2022/02/06 09:18:32;;;;;;;;;;;;;;;6.79;44.92;100264.37;4402936;32;36371;-84
2022/02/06 09:21:00;;;;;;;;;;;;;;;6.83;44.22;100260.56;4407809;32;33859;-85
2022/02/06 09:23:28;;;;;;;;;;;;;;;7.46;43.12;100253.22;4430967;32;33035;-83
2022/02/06 09:25:59;;;;;;;;;;;;;;;7.77;43.18;100251.78;4427171;32;34327;-88
2022/02/06 09:28:27;;;;;;;;;;;;;;;7.96;42.56;100262.66;4423015;32;33397;-81
2022/02/06 09:30:55;;;;;;;;;;;;;;;8.08;43.40;100261.72;4435513;32;34468;-81
2022/02/06 09:35:51;;;;;;;;;;;;;;;7.48;43.13;100261.06;4444290;32;36359;-84
2022/02/06 09:38:20;;;;;;;;;;;;;;;7.18;43.53;100252.72;4430723;32;33876;-84
2022/02/06 09:40:48;;;;;;;;;;;;;;;7.93;42.69;100247.00;4428531;32;34792;-83
2022/02/06 09:43:16;;;;;;;;;;;;;;;8.03;42.11;100235.56;4445224;32;32808;-80
2022/02/06 09:45:46;;;;;;;;;;;;;;;8.13;41.77;100241.03;4412723;32;32408;-81
2022/02/06 09:48:15;;;;;;;;;;;;;;;7.92;42.97;100238.19;4428085;32;36068;-80
2022/02/06 09:50:44;;;;;;;;;;;;;;;7.43;43.72;100226.97;4403896;32;34332;-82
2022/02/06 09:53:13;;;;;;;;;;;;;;;7.46;44.72;100236.50;4441461;32;33199;-83
2022/02/06 09:55:43;;;;;;;;;;;;;;;8.02;43.64;100223.28;4400093;32;34319;-83
2022/02/06 09:58:28;;;;;;;;;;;;;;;7.83;43.94;100214.25;4411414;32;33282;-84
2022/02/06 10:00:57;;;;;;;;;;;;;;;7.70;43.34;100211.66;4430392;32;34456;-81
2022/02/06 10:03:25;;;;;;;;;;;;;;;7.91;43.79;100204.72;4411798;32;31996;-84
2022/02/06 10:05:53;;;;;;;;;;;;;;;7.91;42.87;100201.25;4415104;32;34187;-84
2022/02/06 10:08:30;;;;;;;;;;;;;;;7.92;43.34;100201.12;4426720;32;35478;-82
2022/02/06 10:11:17;;;;;;;;;;;;;;;8.52;42.57;100196.37;4414842;32;34176;-82
2022/02/06 10:13:46;;;;;;;;;;;;;;;8.36;42.71;100193.25;4408953;32;33283;-81
2022/02/06 10:16:15;;;;;;;;;;;;;;;8.47;42.05;100187.94;4429514;32;33901;-83
2022/02/06 10:18:44;;;;;;;;;;;;;;;8.67;42.21;100185.38;4441512;32;37110;-82
2022/02/06 10:21:16;;;;;;;;;;;;;;;8.60;42.26;100172.75;4443946;32;34475;-84
2022/02/06 10:23:54;;;;;;;;;;;;;;;8.76;41.31;100176.69;4419659;32;32764;-83
2022/02/06 10:26:25;;;;;;;;;;;;;;;9.01;41.49;100167.59;4443095;32;34149;-83
2022/02/06 10:29:10;;;;;;;;;;;;;;;8.90;41.43;100159.66;4419302;32;35416;-82
2022/02/06 10:31:39;;;;;;;;;;;;;;;9.07;41.08;100153.81;4420452;32;33785;-83
2022/02/06 10:34:18;;;;;;;;;;;;;;;9.33;40.60;100139.19;4419068;32;33607;-81
2022/02/06 10:36:46;;;;;;;;;;;;;;;8.78;41.04;100139.41;4438434;32;33609;-83
2022/02/06 10:39:15;;;;;;;;;;;;;;;9.08;41.28;100129.78;4440259;32;35708;-81
2022/02/06 10:41:43;;;;;;;;;;;;;;;9.16;41.02;100121.22;4431540;32;34012;-83
2022/02/06 10:44:11;;;;;;;;;;;;;;;9.44;39.99;100109.97;4416688;32;31764;-82
2022/02/06 10:46:54;;;;;;;;;;;;;;;9.15;40.40;100120.34;4431749;32;34168;-84
2022/02/06 10:49:23;;;;;;;;;;;;;;;10.03;39.30;100103.88;4423306;32;37034;-82
2022/02/06 10:51:52;;;;;;;;;;;;;;;9.30;40.12;100099.66;4429911;32;32298;-82
2022/02/06 10:54:20;;;;;;;;;;;;;;;9.81;39.60;100090.75;4418293;32;32497;-83
2022/02/06 10:56:56;;;;;;;;;;;;;;;9.49;39.51;100087.34;4445763;32;33780;-82
2022/02/06 10:59:25;;;;;;;;;;;;;;;9.80;38.85;100086.41;4427867;32;36773;-82
2022/02/06 11:01:54;;;;;;;;;;;;;;;9.64;39.63;100088.69;4408039;32;35195;-80
2022/02/06 11:04:31;;;;;;;;;;;;;;;9.27;40.06;100084.00;4419481;32;32888;-81
2022/02/06 11:07:19;;;;;;;;;;;;;;;9.53;39.62;100074.66;4430347;32;34579;-81
2022/02/06 11:09:47;;;;;;;;;;;;;;;10.00;38.94;100055.44;4428276;32;35173;-82
2022/02/06 11:12:20;;;;;;;;;;;;;;;10.05;38.97;100046.12;4404412;32;33275;-82
2022/02/06 11:14:51;;;;;;;;;;;;;;;10.06;38.58;100037.19;4426939;32;32589;-81
2022/02/06 11:17:24;;;;;;;;;;;;;;;10.02;38.48;100037.53;4427426;32;33582;-82
2022/02/06 11:20:02;;;;;;;;;;;;;;;10.55;38.09;100033.63;4429479;32;35417;-84
2022/02/06 11:22:31;;;;;;;;;;;;;;;10.40;38.58;100019.06;4405040;32;36184;-83
2022/02/06 11:24:59;;;;;;;;;;;;;;;9.91;38.36;100013.72;4401136;32;33326;-81
2022/02/06 11:27:27;;;;;;;;;;;;;;;10.22;38.14;100008.25;4417083;32;33833;-82
2022/02/06 11:29:57;;;;;;;;;;;;;;;10.15;37.87;100009.78;4417035;32;35281;-82
2022/02/06 11:32:26;;;;;;;;;;;;;;;10.55;37.35;99999.03;4409403;32;34442;-80
2022/02/06 11:34:56;;;;;;;;;;;;;;;10.11;38.50;99981.78;4418946;32;32597;-80
2022/02/06 11:46:18;;;;;;;;;;;;;;;9.49;38.97;99975.81;4417980;32;33054;-80
2022/02/06 11:48:46;;;;;;;;;;;;;;;9.35;39.90;99964.72;4426860;32;34470;-80
2022/02/06 11:51:18;;;;;;;;;;;;;;;9.82;39.06;99967.53;4429730;32;35966;-81
2022/02/06 11:53:46;;;;;;;;;;;;;;;9.41;39.62;99961.50;4428987;32;34060;-82
2022/02/06 11:56:29;;;;;;;;;;;;;;;9.63;39.81;99958.69;4415697;32;34092;-81
2022/02/06 11:59:10;;;;;;;;;;;;;;;9.97;38.65;99949.38;4418253;32;33734;-80
2022/02/06 12:01:41;;;;;;;;;;;;;;;10.20;38.34;99927.78;4418109;32;35367;-80
2022/02/06 12:04:24;;;;;;;;;;;;;;;10.06;39.32;99928.19;4430563;32;34235;-80
2022/02/06 12:06:56;;;;;;;;;;;;;;;10.55;38.48;99930.72;4413942;32;34622;-82
2022/02/06 12:09:29;;;;;;;;;;;;;;;11.01;37.62;99909.50;4432192;32;33647;-82
2022/02/06 12:12:03;;;;;;;;;;;;;;;10.86;38.00;99916.25;4402712;32;32895;-81
2022/02/06 12:14:37;;;;;;;;;;;;;;;10.53;37.59;99911.41;4445766;32;35523;-82
2022/02/06 12:17:09;;;;;;;;;;;;;;;10.21;38.30;99894.06;4422487;32;32683;-80
2022/02/06 12:19:38;;;;;;;;;;;;;;;10.07;39.48;99883.84;4417397;32;34959;-80
2022/02/06 12:22:25;;;;;;;;;;;;;;;10.04;39.86;99879.66;4409042;32;34108;-81
2022/02/06 12:24:55;;;;;;;;;;;;;;;10.54;39.56;99864.34;4429936;32;34631;-83
2022/02/06 12:27:27;;;;;;;;;;;;;;;10.55;39.63;99856.25;4406900;32;31835;-84
2022/02/06 12:29:59;;;;;;;;;;;;;;;10.70;39.08;99843.34;4418183;32;34376;-81
2022/02/06 12:32:32;;;;;;;;;;;;;;;10.32;39.65;99852.22;4421725;32;35954;-83
2022/02/06 12:37:55;;;;;;;;;;;;;;;10.39;40.12;99839.19;4433695;32;32750;-80
2022/02/06 12:40:25;;;;;;;;;;;;;;;10.41;40.11;99824.78;4443868;32;34435;-80
2022/02/06 12:43:03;;;;;;;;;;;;;;;10.56;40.38;99835.81;4455213;32;35889;-81
2022/02/06 12:45:32;;;;;;;;;;;;;;;10.60;41.06;99829.22;4429944;32;32962;-81
2022/02/06 12:48:06;;;;;;;;;;;;;;;10.59;41.08;99832.87;4417040;32;33845;-83
2022/02/06 12:50:35;;;;;;;;;;;;;;;11.06;40.53;99829.22;4444776;32;35094;-82
2022/02/06 12:53:05;;;;;;;;;;;;;;;11.11;40.57;99834.94;4443700;32;35284;-84
2022/02/06 12:55:34;;;;;;;;;;;;;;;10.84;40.66;99813.62;4443834;32;34895;-81
2022/02/06 12:58:06;;;;;;;;;;;;;;;11.30;39.81;99808.22;4429710;32;33977;-82
2022/02/06 13:00:41;;;;;;;;;;;;;;;11.77;38.85;99786.63;4416870;32;33949;-81
2022/02/06 13:03:20;;;;;;;;;;;;;;;12.03;38.33;99776.88;4406979;32;35277;-82
2022/02/06 13:05:53;;;;;;;;;;;;;;;12.21;38.08;99786.50;4425393;32;35979;-82
2022/02/06 13:08:23;;;;;;;;;;;;;;;12.20;38.16;99784.00;4422911;32;33226;-81
2022/02/06 13:10:52;;;;;;;;;;;;;;;11.98;38.57;99779.13;4424674;32;36132;-82
2022/02/06 13:13:25;;;;;;;;;;;;;;;11.78;38.80;99775.81;4420334;32;35112;-82
2022/02/06 13:19:15;;;;;;;;;;;;;;;12.35;38.21;99758.44;4418104;32;31049;-79
2022/02/06 13:25:12;;;;;;;;;;;;;;;12.06;38.58;99741.87;4443233;32;35886;-81
2022/02/06 13:35:47;;;;;;;;;;;;;;;11.07;40.72;99724.41;4430289;32;35312;-82
2022/02/06 13:44:25;;;;;;;;;;;;;;;10.67;41.63;99714.09;4341554;32;32653;-85
2022/02/06 13:46:56;;;;;;;;;;;;;;;11.28;40.77;99715.97;4308666;33;33661;-85
2022/02/06 13:49:29;;;;;;;;;;;;;;;11.17;40.92;99703.87;4327409;32;34935;-85
2022/02/06 13:52:04;;;;;;;;;;;;;;;11.06;41.32;99704.09;4319654;32;32266;-85
2022/02/06 13:54:41;;;;;;;;;;;;;;;11.37;40.86;99696.44;4329061;32;33475;-85
2022/02/06 13:57:09;;;;;;;;;;;;;;;11.00;42.14;99696.69;4340940;32;36004;-85
2022/02/06 13:59:38;;;;;;;;;;;;;;;11.10;41.76;99681.50;4330634;32;33095;-85
2022/02/06 14:02:08;;;;;;;;;;;;;;;11.34;41.26;99656.78;4341339;32;33103;-85
2022/02/06 14:04:41;;;;;;;;;;;;;;;11.18;41.60;99669.12;4329998;32;33385;-85
2022/02/06 14:07:21;;;;;;;;;;;;;;;10.96;42.13;99653.56;4340735;33;36288;-86
2022/02/06 14:10:09;;;;;;;;;;;;;;;11.28;41.71;99644.06;4339215;32;33120;-84
2022/02/06 14:12:50;;;;;;;;;;;;;;;11.42;41.43;99653.34;4336879;32;33131;-84
2022/02/06 14:15:19;;;;;;;;;;;;;;;11.47;40.94;99651.91;4334087;32;32340;-84
2022/02/06 14:17:49;;;;;;;;;;;;;;;11.53;40.86;99653.16;4331973;32;34142;-85
2022/02/06 14:20:23;;;;;;;;;;;;;;;10.85;42.14;99629.00;4333825;32;33738;-85
2022/02/06 14:22:54;;;;;;;;;;;;;;;10.80;42.64;99632.12;4339560;32;33500;-85
2022/02/06 14:25:46;;;;;;;;;;;;;;;11.24;41.74;99620.56;4323323;32;32795;-85
2022/02/06 14:28:17;;;;;;;;;;;;;;;10.74;42.70;99615.91;4338713;32;33941;-85
2022/02/06 14:30:46;;;;;;;;;;;;;;;10.83;42.83;99614.97;4356085;32;34251;-86
2022/02/06 14:33:21;;;;;;;;;;;;;;;10.99;42.53;99605.37;4326785;32;33605;-85
2022/02/06 14:36:07;;;;;;;;;;;;;;;10.90;42.36;99621.38;4344292;32;34108;-85
2022/02/06 14:38:49;;;;;;;;;;;;;;;11.22;41.90;99605.75;4335054;32;34774;-83
2022/02/06 14:42:09;;;;;;;;;;;;;;;10.91;42.67;99609.75;4353452;32;34657;-85
2022/02/06 14:44:13;;;;;;;;;;;;;;;10.83;42.56;99607.84;4340139;32;32005;-87
2022/02/06 14:46:42;;;;;;;;;;;;;;;10.75;42.54;99605.09;4332729;33;33809;-85
2022/02/06 14:49:16;;;;;;;;;;;;;;;11.06;42.35;99598.47;4340274;33;34087;-84
2022/02/06 14:51:47;;;;;;;;;;;;;;;11.45;41.78;99589.13;4346019;32;32890;-82
2022/02/06 14:54:20;;;;;;;;;;;;;;;11.66;41.01;99602.97;4346342;32;32521;-84
2022/02/06 14:56:48;;;;;;;;;;;;;;;11.63;40.76;99596.13;4346130;32;33199;-83
2022/02/06 14:59:23;;;;;;;;;;;;;;;11.89;40.43;99598.78;4343742;33;35097;-84
2022/02/06 15:01:53;;;;;;;;;;;;;;;12.12;39.99;99613.28;4358237;32;33229;-84
2022/02/06 15:04:28;;;;;;;;;;;;;;;11.21;41.45;99591.59;4344522;33;33704;-84
2022/02/06 15:06:56;;;;;;;;;;;;;;;11.33;41.22;99593.00;4332197;32;32627;-85
2022/02/06 15:09:23;;;;;;;;;;;;;;;11.79;40.65;99590.06;4343058;32;36020;-83
2022/02/06 15:11:57;;;;;;;;;;;;;;;11.32;41.36;99591.34;4346561;32;33162;-83
2022/02/06 15:14:25;;;;;;;;;;;;;;;11.61;40.87;99590.13;4348157;32;31205;-83
2022/02/06 15:16:57;;;;;;;;;;;;;;;11.67;40.93;99581.50;4344216;32;32738;-83
2022/02/06 15:19:31;;;;;;;;;;;;;;;11.61;41.09;99578.62;4343621;32;35975;-83
2022/02/06 15:21:59;;;;;;;;;;;;;;;11.21;41.81;99583.59;4335290;32;33858;-83
2022/02/06 15:24:28;;;;;;;;;;;;;;;11.45;41.22;99573.97;4346651;32;32517;-84
2022/02/06 15:26:59;;;;;;;;;;;;;;;11.75;40.50;99564.72;4344535;32;35307;-85
2022/02/06 15:29:29;;;;;;;;;;;;;;;11.85;40.32;99570.78;4359428;32;34008;-85
2022/02/06 15:32:04;;;;;;;;;;;;;;;11.80;40.40;99571.25;4336677;32;33434;-83
2022/02/06 15:34:34;;;;;;;;;;;;;;;11.76;40.64;99555.75;4359505;32;33942;-85
2022/02/06 15:37:05;;;;;;;;;;;;;;;12.08;39.88;99559.41;4346356;32;35106;-84
2022/02/06 15:39:35;;;;;;;;;;;;;;;12.15;39.68;99572.94;4348527;32;35212;-85
2022/02/06 15:42:08;;;;;;;;;;;;;;;12.10;39.81;99557.41;4348956;32;33563;-85
2022/02/06 15:44:36;;;;;;;;;;;;;;;12.15;39.72;99563.12;4377148;32;33409;-85
2022/02/06 15:47:03;;;;;;;;;;;;;;;12.25;39.64;99554.97;4362432;32;34023;-84
2022/02/06 15:49:30;;;;;;;;;;;;;;;12.17;39.63;99541.59;4350633;32;34454;-85
2022/02/06 15:51:59;;;;;;;;;;;;;;;12.16;39.60;99527.47;4350497;32;34510;-85
2022/02/06 15:54:28;;;;;;;;;;;;;;;11.27;41.34;99511.09;4363556;32;33178;-84
2022/02/06 15:56:55;;;;;;;;;;;;;;;11.71;40.78;99508.25;4363058;32;34686;-84
2022/02/06 15:59:23;;;;;;;;;;;;;;;11.38;41.62;99522.34;4351142;32;35315;-85
2022/02/06 16:01:54;;;;;;;;;;;;;;;11.13;42.43;99524.12;4357793;32;33434;-85
2022/02/06 16:04:23;;;;;;;;;;;;;;;11.27;42.13;99534.22;4351265;32;33688;-84
2022/02/06 16:06:55;;;;;;;;;;;;;;;11.28;42.11;99521.56;4356531;32;34131;-85
2022/02/06 16:09:31;;;;;;;;;;;;;;;11.34;41.86;99525.47;4364620;32;36366;-84
2022/02/06 16:12:06;;;;;;;;;;;;;;;11.48;41.60;99530.22;4346098;32;36532;-84
2022/02/06 16:14:36;;;;;;;;;;;;;;;11.44;41.63;99536.84;4362980;32;33987;-84
2022/02/06 16:17:10;;;;;;;;;;;;;;;11.55;41.19;99517.94;4376541;32;34139;-86
2022/02/06 16:19:47;;;;;;;;;;;;;;;11.07;42.34;99511.44;4348206;32;34930;-85
2022/02/06 16:22:15;;;;;;;;;;;;;;;11.02;42.73;99503.09;4362371;32;35458;-86
2022/02/06 16:24:42;;;;;;;;;;;;;;;10.82;42.97;99512.19;4336641;32;33273;-85
2022/02/06 16:27:15;;;;;;;;;;;;;;;10.73;43.26;99497.16;4354094;32;33894;-85
2022/02/06 16:29:46;;;;;;;;;;;;;;;10.44;44.19;99493.88;4375001;32;34836;-86
2022/02/06 16:32:15;;;;;;;;;;;;;;;10.69;43.32;99490.47;4348471;32;35460;-86
2022/02/06 16:34:47;;;;;;;;;;;;;;;10.75;43.36;99482.72;4362602;32;33806;-85
2022/02/06 16:37:19;;;;;;;;;;;;;;;10.79;43.36;99502.72;4348077;32;32817;-85
2022/02/06 16:39:51;;;;;;;;;;;;;;;10.79;43.24;99497.41;4349034;32;34331;-85
2022/02/06 16:42:20;;;;;;;;;;;;;;;10.86;42.98;99500.28;4349620;32;34141;-85
2022/02/06 16:44:49;;;;;;;;;;;;;;;10.96;42.88;99485.06;4350709;32;32110;-85
2022/02/06 16:47:21;;;;;;;;;;;;;;;10.90;42.96;99483.00;4360898;32;34124;-85
2022/02/06 16:49:51;;;;;;;;;;;;;;;10.99;43.22;99471.44;4350245;32;33619;-85
2022/02/06 16:52:20;;;;;;;;;;;;;;;10.69;43.38;99469.19;4359693;32;34689;-85
2022/02/06 16:54:49;;;;;;;;;;;;;;;10.60;43.63;99459.47;4336862;32;32970;-85
2022/02/06 16:57:17;;;;;;;;;;;;;;;10.30;44.23;99462.50;4353541;32;33872;-85
2022/02/06 16:59:44;;;;;;;;;;;;;;;10.29;44.38;99453.66;4309684;32;888989;-85
2022/02/06 17:02:12;;;;;;;;;;;;;;;9.91;45.36;99450.41;4363693;32;33975;-85
2022/02/06 17:04:39;;;;;;;;;;;;;;;10.38;44.36;99441.31;4362389;32;34070;-85
2022/02/06 17:07:06;;;;;;;;;;;;;;;10.00;45.16;99438.88;4349816;32;34534;-85
2022/02/06 17:09:35;;;;;;;;;;;;;;;9.82;45.93;99443.31;4338253;32;34429;-85
2022/02/06 17:12:03;;;;;;;;;;;;;;;9.84;45.81;99423.56;4348848;32;34866;-84
2022/02/06 17:14:30;;;;;;;;;;;;;;;10.27;44.70;99417.56;4350345;32;32569;-85
2022/02/06 17:16:58;;;;;;;;;;;;;;;10.02;45.37;99432.44;4353589;32;33625;-85
2022/02/06 17:19:26;;;;;;;;;;;;;;;10.12;45.45;99427.06;4337895;32;34952;-85
2022/02/06 17:21:55;;;;;;;;;;;;;;;9.99;46.05;99426.56;4347032;32;35398;-85
2022/02/06 17:24:25;;;;;;;;;;;;;;;10.03;45.67;99412.84;4356755;32;33014;-85
2022/02/06 17:26:53;;;;;;;;;;;;;;;10.25;45.09;99380.53;4341819;32;34263;-85
2022/02/06 17:29:20;;;;;;;;;;;;;;;9.98;45.73;99380.56;4348145;32;33676;-86
2022/02/06 17:31:49;;;;;;;;;;;;;;;9.81;46.23;99373.41;4351543;32;33697;-86
2022/02/06 17:34:23;;;;;;;;;;;;;;;8.89;48.63;99367.41;4344610;32;34534;-86
2022/02/06 17:36:51;;;;;;;;;;;;;;;9.32;47.62;99370.31;4346729;32;32392;-86
2022/02/06 17:39:18;;;;;;;;;;;;;;;9.46;47.34;99369.84;4372795;32;34648;-86
2022/02/06 17:41:49;;;;;;;;;;;;;;;9.78;46.65;99354.25;4341078;32;33871;-86
2022/02/06 17:44:17;;;;;;;;;;;;;;;9.70;46.72;99347.06;4357109;32;32689;-86
2022/02/06 17:46:48;;;;;;;;;;;;;;;9.56;47.10;99336.91;4370245;32;34126;-86
2022/02/06 17:49:16;;;;;;;;;;;;;;;9.32;48.08;99349.94;4369922;32;34846;-86
2022/02/06 17:51:45;;;;;;;;;;;;;;;9.21;48.59;99344.81;4372620;32;34806;-86
2022/02/06 17:54:12;;;;;;;;;;;;;;;9.32;48.84;99344.63;4361258;32;32032;-84
2022/02/06 17:56:40;;;;;;;;;;;;;;;9.51;48.11;99323.28;4347358;32;34573;-85
2022/02/06 17:59:10;;;;;;;;;;;;;;;9.29;48.48;99328.16;4357140;32;34171;-84